createdAt,value
2018-03-17T00:00:03.679Z,3.22
2018-03-17T00:02:32.792Z,2.70
2018-03-17T00:05:01.964Z,2.87
2018-03-17T00:07:31.191Z,2.93
2018-03-17T00:10:00.328Z,3.20
2018-03-17T00:12:29.612Z,3.40
2018-03-17T00:15:01.091Z,3.20
2018-03-17T00:17:30.218Z,3.80
2018-03-17T00:19:59.296Z,3.13
2018-03-17T00:22:28.338Z,3.33
2018-03-17T00:24:57.790Z,3.87
2018-03-17T00:27:26.742Z,2.90
2018-03-17T00:29:55.742Z,3.97
2018-03-17T00:32:24.871Z,4.03
2018-03-17T00:34:53.880Z,3.40
2018-03-17T00:37:22.916Z,3.33
2018-03-17T00:39:52.091Z,3.70
2018-03-17T00:42:21.287Z,3.60
2018-03-17T00:44:50.341Z,2.83
2018-03-17T00:47:19.335Z,3.87
2018-03-17T00:49:48.356Z,3.12
2018-03-17T00:52:17.403Z,3.73
2018-03-17T00:54:46.352Z,3.73
2018-03-17T00:57:15.374Z,4.10
2018-03-17T00:59:44.439Z,3.73
2018-03-17T01:02:13.831Z,3.40
2018-03-17T01:04:42.966Z,3.37
2018-03-17T01:07:12.112Z,3.70
2018-03-17T01:09:41.221Z,2.80
2018-03-17T01:12:10.313Z,3.10
2018-03-17T01:14:39.396Z,3.80
2018-03-17T01:17:08.424Z,3.28
2018-03-17T01:19:39.039Z,2.83
2018-03-17T01:22:08.229Z,3.17
2018-03-17T01:24:37.229Z,3.72
2018-03-17T01:27:06.288Z,3.80
2018-03-17T01:29:36.077Z,3.30
2018-03-17T01:32:05.113Z,2.67
2018-03-17T01:34:34.113Z,3.73
2018-03-17T01:37:03.061Z,3.07
2018-03-17T01:39:32.167Z,2.85
2018-03-17T01:42:02.014Z,2.85
2018-03-17T01:44:30.965Z,2.80
2018-03-17T01:46:59.881Z,3.07
2018-03-17T01:49:28.950Z,2.97
2018-03-17T01:51:58.304Z,3.08
2018-03-17T01:54:33.061Z,2.65
2018-03-17T01:57:02.140Z,3.10
2018-03-17T01:59:31.310Z,2.87
2018-03-17T02:02:00.382Z,3.53
2018-03-17T02:04:29.412Z,3.75
2018-03-17T02:06:58.400Z,3.75
2018-03-17T02:09:27.358Z,3.12
2018-03-17T02:11:56.445Z,2.97
2018-03-17T02:14:25.459Z,3.70
2018-03-17T02:16:54.492Z,2.45
2018-03-17T02:19:23.576Z,2.95
2018-03-17T02:21:52.573Z,2.65
2018-03-17T02:24:21.574Z,2.90
2018-03-17T02:26:50.945Z,3.20
2018-03-17T02:29:19.885Z,2.92
2018-03-17T02:31:49.920Z,3.53
2018-03-17T02:34:18.975Z,2.75
2018-03-17T02:36:48.019Z,2.62
2018-03-17T02:39:17.112Z,2.50
2018-03-17T02:41:46.180Z,2.45
2018-03-17T02:44:15.138Z,2.87
2018-03-17T02:46:44.178Z,2.92
2018-03-17T02:49:13.173Z,5.45
2018-03-17T02:51:42.278Z,4.20
2018-03-17T02:54:11.453Z,4.03
2018-03-17T02:56:40.447Z,5.18
2018-03-17T02:59:09.387Z,4.57
2018-03-17T03:01:38.370Z,4.57
2018-03-17T03:04:07.664Z,8.93
2018-03-17T03:06:36.743Z,11.27
2018-03-17T03:09:06.897Z,9.25
2018-03-17T03:11:35.851Z,11.82
2018-03-17T03:14:04.909Z,10.27
2018-03-17T03:16:33.951Z,8.98
2018-03-17T03:19:02.889Z,10.30
2018-03-17T03:21:31.907Z,9.48
2018-03-17T03:24:00.952Z,9.13
2018-03-17T03:26:29.939Z,10.93
2018-03-17T03:29:00.014Z,11.65
2018-03-17T03:31:28.947Z,8.65
2018-03-17T03:33:57.921Z,8.27
2018-03-17T03:36:26.941Z,10.52
2018-03-17T03:38:55.922Z,12.65
2018-03-17T03:41:24.870Z,14.90
2018-03-17T03:43:53.968Z,15.55
2018-03-17T03:46:23.058Z,13.75
2018-03-17T03:51:44.955Z,13.90
2018-03-17T03:54:14.180Z,14.52
2018-03-17T03:56:43.297Z,16.10
2018-03-17T03:59:12.452Z,15.02
2018-03-17T04:01:41.499Z,13.75
2018-03-17T04:04:10.657Z,14.77
2018-03-17T04:06:39.743Z,12.52
2018-03-17T04:09:08.825Z,15.70
2018-03-17T04:11:37.904Z,16.45
2018-03-17T04:14:06.926Z,16.92
2018-03-17T04:16:35.969Z,15.38
2018-03-17T04:19:05.047Z,14.10
2018-03-17T04:21:34.816Z,14.80
2018-03-17T04:24:03.921Z,17.37
2018-03-17T04:26:32.940Z,16.52
2018-03-17T04:29:02.321Z,20.33
2018-03-17T04:31:31.397Z,17.52
2018-03-17T04:34:00.493Z,16.58
2018-03-17T04:36:29.540Z,18.15
2018-03-17T04:38:58.726Z,17.25
2018-03-17T04:41:27.778Z,18.42
2018-03-17T04:43:56.825Z,16.77
2018-03-17T04:46:25.864Z,18.85
2018-03-17T04:48:54.963Z,16.58
2018-03-17T04:51:24.065Z,17.92
2018-03-17T04:53:53.187Z,18.60
2018-03-17T04:56:22.280Z,21.67
2018-03-17T04:58:51.351Z,16.37
2018-03-17T05:01:20.442Z,19.60
2018-03-17T05:03:49.636Z,16.92
2018-03-17T05:06:19.695Z,16.15
2018-03-17T05:08:48.755Z,17.52
2018-03-17T05:11:17.778Z,20.77
2018-03-17T05:13:46.887Z,23.98
2018-03-17T05:16:16.052Z,20.67
2018-03-17T05:18:45.154Z,18.08
2018-03-17T05:21:14.409Z,19.55
2018-03-17T05:23:43.555Z,19.40
2018-03-17T05:26:12.753Z,19.15
2018-03-17T05:28:41.844Z,17.73
2018-03-17T05:31:11.016Z,20.27
2018-03-17T05:33:40.068Z,21.30
2018-03-17T05:36:09.113Z,21.50
2018-03-17T05:38:38.271Z,18.45
2018-03-17T05:41:07.297Z,19.65
2018-03-17T05:43:36.345Z,20.30
2018-03-17T05:46:05.508Z,22.77
2018-03-17T05:48:35.331Z,21.90
2018-03-17T05:51:04.628Z,21.87
2018-03-17T05:53:33.925Z,21.15
2018-03-17T05:56:03.253Z,21.90
2018-03-17T05:58:32.368Z,17.75
2018-03-17T06:01:01.524Z,17.98
2018-03-17T06:03:30.649Z,18.75
2018-03-17T06:05:59.872Z,25.88
2018-03-17T06:08:29.164Z,19.27
2018-03-17T06:10:58.554Z,20.73
2018-03-17T06:13:28.666Z,21.92
2018-03-17T06:16:13.691Z,21.50
2018-03-17T06:18:42.819Z,23.52
2018-03-17T06:21:11.968Z,24.20
2018-03-17T06:23:41.051Z,19.15
2018-03-17T06:26:11.058Z,17.50
2018-03-17T06:28:40.259Z,24.80
2018-03-17T06:31:09.283Z,20.55
2018-03-17T06:33:38.446Z,20.25
2018-03-17T06:36:08.484Z,28.75
2018-03-17T06:38:37.731Z,24.48
2018-03-17T06:41:06.891Z,21.58
2018-03-17T06:43:37.051Z,21.67
2018-03-17T06:46:06.083Z,22.80
2018-03-17T06:48:35.091Z,21.48
2018-03-17T06:51:04.276Z,16.73
2018-03-17T06:53:33.388Z,21.48
2018-03-17T06:56:02.488Z,19.85
2018-03-17T06:58:31.583Z,18.73
2018-03-17T07:01:00.648Z,18.35
2018-03-17T07:03:29.830Z,22.98
2018-03-17T07:05:58.860Z,22.17
2018-03-17T07:08:27.955Z,23.30
2018-03-17T07:10:57.308Z,23.67
2018-03-17T07:13:26.463Z,23.00
2018-03-17T07:15:55.669Z,23.30
2018-03-17T07:18:24.751Z,22.13
2018-03-17T07:20:54.053Z,19.58
2018-03-17T07:23:23.158Z,22.52
2018-03-17T07:25:52.234Z,22.65
2018-03-17T07:28:21.407Z,19.48
2018-03-17T07:30:50.642Z,21.50
2018-03-17T07:33:19.812Z,21.50
2018-03-17T07:35:48.936Z,20.37
2018-03-17T07:38:18.228Z,22.37
2018-03-17T07:40:47.438Z,17.95
2018-03-17T07:43:16.852Z,19.87
2018-03-17T07:45:45.933Z,23.58
2018-03-17T07:48:15.029Z,25.23
2018-03-17T07:50:44.038Z,22.92
2018-03-17T07:53:13.238Z,23.55
2018-03-17T07:55:42.360Z,18.90
2018-03-17T07:58:11.419Z,22.15
2018-03-17T08:00:40.531Z,21.90
2018-03-17T08:03:09.629Z,22.60
2018-03-17T08:05:38.806Z,21.40
2018-03-17T08:08:07.994Z,25.25
2018-03-17T08:10:37.740Z,24.42
2018-03-17T08:13:07.194Z,19.45
2018-03-17T08:15:36.215Z,20.77
2018-03-17T08:18:05.375Z,19.77
2018-03-17T08:20:34.598Z,19.77
2018-03-17T08:23:03.751Z,18.73
2018-03-17T08:25:33.955Z,19.02
2018-03-17T08:28:03.053Z,22.80
2018-03-17T08:30:32.219Z,24.15
2018-03-17T08:33:01.268Z,22.83
2018-03-17T08:35:30.384Z,22.48
2018-03-17T08:37:59.597Z,22.40
2018-03-17T08:40:28.644Z,21.83
2018-03-17T08:42:57.792Z,19.70
2018-03-17T08:45:27.319Z,21.50
2018-03-17T08:47:56.588Z,20.90
2018-03-17T08:50:25.639Z,21.60
2018-03-17T08:52:56.069Z,23.90
2018-03-17T08:55:25.149Z,23.02
2018-03-17T08:57:54.278Z,19.55
2018-03-17T09:00:23.543Z,22.37
2018-03-17T09:02:52.951Z,25.37
2018-03-17T09:05:22.126Z,18.95
2018-03-17T09:07:54.860Z,19.15
2018-03-17T09:10:24.192Z,17.20
2018-03-17T09:12:53.501Z,21.00
2018-03-17T09:15:24.945Z,25.35
2018-03-17T09:17:54.093Z,23.08
2018-03-17T09:20:23.689Z,20.02
2018-03-17T09:22:52.835Z,23.33
2018-03-17T09:25:22.388Z,21.05
2018-03-17T09:27:51.403Z,23.75
2018-03-17T09:30:20.652Z,22.30
2018-03-17T09:32:51.375Z,22.20
2018-03-17T09:35:20.408Z,24.17
2018-03-17T09:37:49.461Z,22.58
2018-03-17T09:40:18.508Z,23.33
2018-03-17T09:42:47.809Z,21.92
2018-03-17T09:45:16.921Z,24.37
2018-03-17T09:47:46.020Z,21.70
2018-03-17T09:50:15.112Z,21.17
2018-03-17T09:52:44.443Z,22.42
2018-03-17T09:55:13.540Z,21.90
2018-03-17T09:57:42.690Z,18.23
2018-03-17T10:00:11.944Z,24.90
2018-03-17T10:02:41.589Z,27.80
2018-03-17T10:05:10.659Z,22.87
2018-03-17T10:07:39.705Z,26.20
2018-03-17T10:10:08.765Z,21.15
2018-03-17T10:12:43.779Z,21.85
2018-03-17T10:15:12.901Z,24.40
2018-03-17T10:17:41.951Z,22.50
2018-03-17T10:20:10.981Z,24.73
2018-03-17T10:22:39.988Z,26.00
2018-03-17T10:25:09.497Z,23.17
2018-03-17T10:27:38.732Z,23.12
2018-03-17T10:30:07.850Z,22.52
2018-03-17T10:32:36.967Z,25.23
2018-03-17T10:35:06.138Z,19.33
2018-03-17T10:37:35.226Z,20.60
2018-03-17T10:40:05.693Z,24.45
2018-03-17T10:42:34.772Z,23.85
2018-03-17T10:45:04.018Z,23.27
2018-03-17T10:47:33.182Z,22.25
2018-03-17T10:50:02.737Z,22.25
2018-03-17T10:52:31.808Z,24.17
2018-03-17T10:55:00.982Z,26.30
2018-03-17T10:57:30.219Z,24.58
2018-03-17T11:00:00.200Z,25.55
2018-03-17T11:05:23.951Z,23.42
2018-03-17T11:16:31.063Z,23.83
2018-03-17T11:19:00.165Z,23.45
2018-03-17T11:21:30.839Z,21.67
2018-03-17T11:23:59.989Z,23.10
2018-03-17T11:26:29.053Z,21.37
2018-03-17T11:29:01.726Z,24.83
2018-03-17T11:31:30.857Z,19.23
2018-03-17T11:33:59.981Z,24.42
2018-03-17T11:36:29.020Z,22.83
2018-03-17T11:38:58.598Z,23.52
2018-03-17T11:41:27.785Z,22.85
2018-03-17T11:43:59.312Z,25.20
2018-03-17T11:46:28.442Z,20.30
2018-03-17T12:00:36.830Z,21.02
2018-03-17T12:03:05.914Z,18.30
2018-03-17T12:05:35.029Z,20.73
2018-03-17T12:08:04.552Z,23.00
2018-03-17T12:10:33.669Z,20.77
2018-03-17T12:13:02.742Z,20.88
2018-03-17T12:15:31.879Z,21.95
2018-03-17T12:18:01.426Z,21.17
2018-03-17T12:20:49.971Z,20.05
2018-03-17T12:23:22.031Z,23.42
2018-03-17T12:25:51.242Z,18.55
2018-03-17T12:28:20.457Z,19.42
2018-03-17T12:30:49.888Z,22.15
2018-03-17T12:33:18.932Z,24.45
2018-03-17T12:35:48.061Z,21.67
2018-03-17T12:38:17.507Z,20.92
2018-03-17T12:40:46.531Z,19.15
2018-03-17T12:43:15.578Z,17.77
2018-03-17T12:45:46.937Z,19.75
2018-03-17T12:48:16.038Z,22.55
2018-03-17T12:50:45.154Z,18.67
2018-03-17T12:53:14.705Z,19.42
2018-03-17T12:55:43.868Z,16.98
2018-03-17T12:58:13.065Z,17.05
2018-03-17T13:00:42.537Z,19.12
2018-03-17T13:03:11.620Z,18.33
2018-03-17T13:05:40.713Z,20.23
2018-03-17T13:08:11.109Z,19.65
2018-03-17T13:10:40.190Z,19.60
2018-03-17T13:13:09.278Z,20.95
2018-03-17T13:15:38.586Z,18.80
2018-03-17T13:18:08.586Z,20.00
2018-03-17T13:20:37.653Z,20.95
2018-03-17T13:23:15.423Z,17.23
2018-03-17T13:25:44.528Z,18.08
2018-03-17T13:28:23.570Z,16.33
2018-03-17T13:30:52.700Z,20.35
2018-03-17T13:33:21.910Z,20.83
2018-03-17T13:38:03.133Z,22.23
2018-03-17T13:40:34.193Z,19.73
2018-03-17T13:43:03.371Z,20.62
2018-03-17T13:45:32.456Z,19.73
2018-03-17T13:48:02.865Z,18.97
2018-03-17T13:50:33.415Z,20.33
2018-03-17T13:53:02.685Z,18.03
2018-03-17T13:55:31.907Z,18.57
2018-03-17T13:58:01.218Z,17.50
2018-03-17T14:00:30.493Z,17.35
2018-03-17T14:02:59.781Z,19.80
2018-03-17T14:05:28.923Z,21.85
2018-03-17T14:07:58.495Z,18.73
2018-03-17T14:10:27.670Z,19.02
2018-03-17T14:12:57.208Z,23.15
2018-03-17T14:15:26.941Z,19.80
2018-03-17T14:17:56.109Z,20.47
2018-03-17T14:20:25.294Z,19.62
2018-03-17T14:22:54.333Z,23.25
2018-03-17T14:25:23.513Z,21.27
2018-03-17T14:27:54.315Z,22.02
2018-03-17T14:30:24.601Z,18.37
2018-03-17T14:32:54.920Z,17.98
2018-03-17T14:35:28.097Z,20.75
2018-03-17T14:37:57.581Z,20.58
2018-03-17T14:40:27.604Z,21.73
2018-03-17T14:42:56.998Z,21.20
2018-03-17T14:45:26.272Z,22.45
2018-03-17T14:47:55.757Z,20.92
2018-03-17T14:50:24.880Z,21.17
2018-03-17T14:52:54.525Z,23.15
2018-03-17T14:55:23.696Z,21.02
2018-03-17T14:57:52.810Z,22.10
2018-03-17T15:00:21.995Z,21.00
2018-03-17T15:02:51.408Z,18.80
2018-03-17T15:05:20.514Z,20.67
2018-03-17T15:08:01.094Z,21.53
2018-03-17T15:10:31.794Z,22.67
2018-03-17T15:13:01.182Z,23.02
2018-03-17T15:15:31.018Z,21.17
2018-03-17T15:18:02.079Z,20.52
2018-03-17T15:20:31.615Z,22.30
2018-03-17T15:23:01.307Z,22.03
2018-03-17T15:25:31.673Z,20.77
2018-03-17T15:28:00.737Z,22.53
2018-03-17T15:30:29.897Z,21.23
2018-03-17T15:32:59.400Z,21.45
2018-03-17T15:35:28.531Z,20.88
2018-03-17T15:37:57.557Z,22.20
2018-03-17T15:40:26.887Z,21.73
2018-03-17T15:42:56.398Z,22.70
2018-03-17T15:45:25.896Z,20.57
2018-03-17T15:47:55.088Z,22.00
2018-03-17T15:50:24.234Z,22.97
2018-03-17T15:52:53.640Z,20.30
2018-03-17T15:55:24.435Z,23.83
2018-03-17T15:57:53.630Z,23.70
2018-03-17T16:00:24.667Z,23.07
2018-03-17T16:02:54.506Z,25.23
2018-03-17T16:05:24.134Z,24.83
2018-03-17T16:07:53.811Z,25.80
2018-03-17T16:10:22.926Z,24.47
2018-03-17T16:12:52.088Z,22.43
2018-03-17T16:15:21.358Z,22.30
2018-03-17T16:17:51.797Z,21.83
2018-03-17T16:20:20.898Z,21.20
2018-03-17T16:22:52.593Z,20.17
2018-03-17T16:25:21.761Z,19.30
2018-03-17T16:27:51.039Z,18.20
2018-03-17T16:30:20.208Z,21.07
2018-03-17T16:32:49.821Z,22.73
2018-03-17T16:35:19.268Z,21.37
2018-03-17T16:37:49.387Z,21.07
2018-03-17T16:40:18.566Z,18.87
2018-03-17T16:42:48.263Z,20.93
2018-03-17T16:45:17.336Z,21.53
2018-03-17T16:47:46.530Z,21.37
2018-03-17T16:50:16.907Z,19.73
2018-03-17T16:52:45.965Z,21.07
2018-03-17T16:55:15.756Z,18.87
2018-03-17T16:57:46.107Z,16.37
2018-03-17T17:00:15.389Z,18.03
2018-03-17T17:02:45.512Z,19.40
2018-03-17T17:05:15.154Z,20.50
2018-03-17T17:07:44.171Z,17.65
2018-03-17T17:10:13.266Z,20.67
2018-03-17T17:12:47.813Z,17.83
2018-03-17T17:15:17.024Z,18.30
2018-03-17T17:17:46.410Z,20.33
2018-03-17T17:20:15.843Z,20.13
2018-03-17T17:22:45.484Z,17.87
2018-03-17T17:25:14.637Z,20.20
2018-03-17T17:27:46.162Z,21.80
2018-03-17T17:30:15.452Z,20.13
2018-03-17T17:32:44.585Z,19.23
2018-03-17T17:35:15.068Z,18.53
2018-03-17T17:37:44.162Z,18.35
2018-03-17T17:40:13.254Z,21.08
2018-03-17T17:42:42.453Z,18.03
2018-03-17T17:45:11.579Z,18.97
2018-03-17T17:47:41.569Z,19.10
2018-03-17T17:50:13.370Z,18.67
2018-03-17T17:52:42.546Z,18.33
2018-03-17T17:55:11.768Z,19.07
2018-03-17T17:57:41.121Z,18.77
2018-03-17T18:00:10.293Z,18.60
2018-03-17T18:02:39.382Z,16.63
2018-03-17T18:05:08.997Z,19.83
2018-03-17T18:07:39.247Z,18.03
2018-03-17T18:10:08.413Z,20.33
2018-03-17T18:12:39.066Z,20.10
2018-03-17T18:15:08.357Z,17.90
2018-03-17T18:17:38.050Z,17.20
2018-03-17T18:20:12.679Z,17.97
2018-03-17T18:22:42.306Z,17.30
2018-03-17T18:25:12.060Z,15.53
2018-03-17T18:27:44.372Z,16.60
2018-03-17T18:30:13.607Z,18.23
2018-03-17T18:32:42.967Z,18.67
2018-03-17T18:35:17.636Z,18.37
2018-03-17T18:37:46.918Z,17.53
2018-03-17T18:40:16.487Z,15.73
2018-03-17T18:42:52.004Z,18.27
2018-03-17T18:45:21.255Z,18.37
2018-03-17T18:53:50.607Z,16.97
2018-03-17T18:56:19.706Z,18.47
2018-03-17T18:58:52.072Z,18.27
2018-03-17T19:01:21.763Z,18.13
2018-03-17T19:03:50.981Z,19.13
2018-03-17T19:06:20.530Z,18.20
2018-03-17T19:08:51.763Z,17.63
2018-03-17T19:11:20.826Z,17.33
2018-03-17T19:13:51.259Z,17.83
2018-03-17T19:16:20.857Z,18.70
2018-03-17T19:18:55.854Z,19.47
2018-03-17T19:21:24.970Z,18.23
2018-03-17T19:23:55.340Z,17.53
2018-03-17T19:26:24.675Z,20.13
2018-03-17T19:28:55.196Z,18.67
2018-03-17T19:31:24.397Z,20.37
2018-03-17T19:33:53.815Z,19.47
2018-03-17T19:36:23.071Z,19.77
2018-03-17T19:38:52.439Z,18.50
2018-03-17T19:41:22.141Z,19.80
2018-03-17T19:43:51.438Z,20.23
2018-03-17T19:46:21.082Z,19.80
2018-03-17T19:48:50.495Z,20.07
2018-03-17T19:52:35.228Z,21.40
2018-03-17T19:55:04.679Z,21.23
2018-03-17T19:57:34.939Z,19.20
2018-03-17T20:00:04.203Z,21.80
2018-03-17T20:02:36.247Z,19.63
2018-03-17T20:05:05.395Z,19.10
2018-03-17T20:07:34.620Z,20.93
2018-03-17T20:10:03.895Z,21.23
2018-03-17T20:12:33.040Z,23.13
2018-03-17T20:15:04.957Z,21.43
2018-03-17T20:17:36.659Z,20.73
2018-03-17T20:20:05.999Z,21.60
2018-03-17T20:22:35.518Z,21.23
2018-03-17T20:25:05.432Z,21.53
2018-03-17T20:27:35.447Z,22.57
2018-03-17T20:30:05.158Z,21.03
2018-03-17T20:32:34.820Z,21.97
2018-03-17T20:35:04.133Z,21.90
2018-03-17T20:37:33.539Z,21.37
2018-03-17T20:40:03.032Z,21.17
2018-03-17T20:42:32.160Z,20.37
2018-03-17T20:45:02.254Z,21.47
2018-03-17T20:47:31.484Z,21.97
2018-03-17T20:50:01.561Z,23.37
2018-03-17T20:52:30.756Z,21.00
2018-03-17T20:55:01.746Z,23.43
2018-03-17T20:57:30.895Z,18.13
2018-03-17T21:00:01.123Z,22.13
2018-03-17T21:02:34.920Z,22.30
2018-03-17T21:05:04.394Z,22.43
2018-03-17T21:07:33.787Z,21.00
2018-03-17T21:10:03.180Z,19.27
2018-03-17T21:12:32.233Z,24.13
2018-03-17T21:15:01.443Z,25.33
2018-03-17T21:17:31.164Z,24.10
2018-03-17T21:20:01.458Z,23.73
2018-03-17T21:22:30.764Z,24.97
2018-03-17T21:25:01.697Z,28.20
2018-03-17T21:27:30.784Z,26.27
2018-03-17T21:29:59.979Z,25.07
2018-03-17T21:32:29.505Z,23.20
2018-03-17T21:34:59.673Z,25.43
2018-03-17T21:37:31.021Z,25.07
2018-03-17T21:40:01.036Z,26.77
2018-03-17T21:42:30.364Z,25.70
2018-03-17T21:44:59.556Z,25.47
2018-03-17T21:47:28.789Z,24.43
2018-03-17T21:49:58.122Z,28.80
2018-03-17T21:52:27.297Z,27.33
2018-03-17T21:54:56.628Z,26.50
2018-03-17T21:57:26.515Z,27.20
2018-03-17T21:59:55.996Z,26.73
2018-03-17T22:02:26.222Z,28.40
2018-03-17T22:04:55.298Z,28.10
2018-03-17T22:07:24.369Z,28.17
2018-03-17T22:09:53.553Z,30.10
2018-03-17T22:12:23.180Z,25.00
2018-03-17T22:14:52.261Z,28.27
2018-03-17T22:17:21.682Z,29.57
2018-03-17T22:19:54.227Z,24.93
2018-03-17T22:22:23.425Z,26.73
2018-03-17T22:24:52.493Z,26.57
2018-03-17T22:27:21.752Z,24.30
2018-03-17T22:29:50.844Z,27.07
2018-03-17T22:32:19.870Z,28.90
2018-03-17T22:34:50.436Z,25.90
2018-03-17T22:37:25.966Z,29.83
2018-03-17T22:39:55.047Z,26.43
2018-03-17T22:42:24.262Z,27.23
2018-03-17T22:44:53.355Z,28.23
2018-03-17T22:47:22.432Z,21.93
2018-03-17T22:49:51.637Z,26.83
2018-03-17T22:52:20.854Z,24.47
2018-03-17T22:54:49.992Z,24.20
2018-03-17T22:57:20.550Z,27.50
2018-03-17T22:59:49.637Z,20.83
2018-03-17T23:02:19.588Z,25.47
2018-03-17T23:04:49.051Z,27.00
2018-03-17T23:07:18.189Z,23.80
2018-03-17T23:09:47.640Z,25.80
2018-03-17T23:12:17.612Z,23.37
2018-03-17T23:14:46.917Z,22.30
2018-03-17T23:17:16.403Z,20.33
2018-03-17T23:19:45.925Z,23.40
2018-03-17T23:22:14.992Z,21.67
2018-03-17T23:24:44.258Z,23.13
2018-03-17T23:27:16.661Z,19.90
2018-03-17T23:29:45.870Z,21.97
2018-03-17T23:32:16.219Z,20.57
2018-03-17T23:34:45.804Z,24.50
2018-03-17T23:37:15.043Z,22.90
2018-03-17T23:39:45.722Z,26.50
2018-03-17T23:42:15.118Z,23.73
2018-03-17T23:44:46.048Z,21.47
2018-03-17T23:47:16.060Z,24.70
2018-03-17T23:49:45.250Z,26.13
2018-03-17T23:52:14.631Z,20.27
2018-03-17T23:54:45.734Z,21.37
2018-03-17T23:57:14.977Z,22.90
2018-03-17T23:59:46.685Z,22.77
